sensor_id;sensor_type;location;lat;lon;timestamp;pressure;altitude;pressure_sealevel;temperature;humidity
76627;BME280;65519;53.230;10.390;2023-02-24T00:01:41;100835.78;;;4.14;73.63
76627;BME280;65519;53.230;10.390;2023-02-24T00:04:10;100830.91;;;4.04;72.27
76627;BME280;65519;53.230;10.390;2023-02-24T00:06:38;100826.44;;;4.17;72.62
76627;BME280;65519;53.230;10.390;2023-02-24T00:11:36;100827.38;;;4.04;72.98
76627;BME280;65519;53.230;10.390;2023-02-24T00:14:06;100819.38;;;4.16;72.66
76627;BME280;65519;53.230;10.390;2023-02-24T00:16:33;100820.44;;;4.15;73.29
76627;BME280;65519;53.230;10.390;2023-02-24T00:18:59;100822.44;;;4.01;73.76
76627;BME280;65519;53.230;10.390;2023-02-24T00:21:25;100811.38;;;4.09;72.64
76627;BME280;65519;53.230;10.390;2023-02-24T00:23:53;100815.88;;;4.15;74.05
76627;BME280;65519;53.230;10.390;2023-02-24T00:26:18;100812.84;;;4.05;73.92
76627;BME280;65519;53.230;10.390;2023-02-24T00:28:43;100810.59;;;4.02;73.25
76627;BME280;65519;53.230;10.390;2023-02-24T00:31:12;100808.06;;;3.89;73.44
76627;BME280;65519;53.230;10.390;2023-02-24T00:33:43;100810.47;;;3.97;73.62
76627;BME280;65519;53.230;10.390;2023-02-24T00:38:41;100800.41;;;4.04;73.16
76627;BME280;65519;53.230;10.390;2023-02-24T00:41:14;100798.81;;;3.78;73.55
76627;BME280;65519;53.230;10.390;2023-02-24T00:43:41;100789.75;;;3.91;75.26
76627;BME280;65519;53.230;10.390;2023-02-24T00:46:12;100794.63;;;4.00;73.12
76627;BME280;65519;53.230;10.390;2023-02-24T00:48:39;100789.56;;;4.11;74.05
76627;BME280;65519;53.230;10.390;2023-02-24T00:51:09;100787.09;;;4.09;73.17
76627;BME280;65519;53.230;10.390;2023-02-24T00:53:35;100781.09;;;4.07;73.19
76627;BME280;65519;53.230;10.390;2023-02-24T00:56:02;100775.19;;;3.98;73.03
76627;BME280;65519;53.230;10.390;2023-02-24T00:58:31;100774.66;;;4.08;73.23
76627;BME280;65519;53.230;10.390;2023-02-24T01:00:57;100775.09;;;4.05;72.59
76627;BME280;65519;53.230;10.390;2023-02-24T01:03:22;100768.66;;;3.88;73.66
76627;BME280;65519;53.230;10.390;2023-02-24T01:05:50;100768.97;;;3.98;73.14
76627;BME280;65519;53.230;10.390;2023-02-24T01:08:15;100765.50;;;4.09;73.83
76627;BME280;65519;53.230;10.390;2023-02-24T01:10:53;100760.34;;;4.08;73.76
76627;BME280;65519;53.230;10.390;2023-02-24T01:13:39;100763.38;;;3.93;74.39
76627;BME280;65519;53.230;10.390;2023-02-24T01:16:04;100752.91;;;4.03;73.91
76627;BME280;65519;53.230;10.390;2023-02-24T01:18:31;100753.50;;;4.05;73.65
76627;BME280;65519;53.230;10.390;2023-02-24T01:20:59;100752.47;;;4.06;75.25
76627;BME280;65519;53.230;10.390;2023-02-24T01:23:24;100754.44;;;3.99;74.39
76627;BME280;65519;53.230;10.390;2023-02-24T01:25:50;100750.34;;;3.90;74.37
76627;BME280;65519;53.230;10.390;2023-02-24T01:28:17;100741.59;;;3.94;75.48
76627;BME280;65519;53.230;10.390;2023-02-24T01:30:42;100746.03;;;4.07;74.23
76627;BME280;65519;53.230;10.390;2023-02-24T01:33:09;100741.50;;;4.01;74.50
76627;BME280;65519;53.230;10.390;2023-02-24T01:35:41;100738.59;;;3.84;74.67
76627;BME280;65519;53.230;10.390;2023-02-24T01:38:07;100739.88;;;4.00;74.31
76627;BME280;65519;53.230;10.390;2023-02-24T01:40:32;100720.69;;;4.08;74.12
76627;BME280;65519;53.230;10.390;2023-02-24T01:42:57;100721.06;;;3.93;74.01
76627;BME280;65519;53.230;10.390;2023-02-24T01:45:26;100713.50;;;4.02;73.55
76627;BME280;65519;53.230;10.390;2023-02-24T01:48:02;100714.84;;;3.93;74.58
76627;BME280;65519;53.230;10.390;2023-02-24T01:50:32;100708.03;;;3.90;74.17
76627;BME280;65519;53.230;10.390;2023-02-24T01:53:01;100702.88;;;3.89;74.49
76627;BME280;65519;53.230;10.390;2023-02-24T01:55:39;100690.44;;;4.06;73.90
76627;BME280;65519;53.230;10.390;2023-02-24T01:58:11;100688.34;;;4.08;73.15
76627;BME280;65519;53.230;10.390;2023-02-24T02:00:40;100690.56;;;3.93;72.64
76627;BME280;65519;53.230;10.390;2023-02-24T02:05:48;100678.34;;;3.90;73.30
76627;BME280;65519;53.230;10.390;2023-02-24T02:08:17;100679.94;;;3.98;72.87
76627;BME280;65519;53.230;10.390;2023-02-24T02:10:43;100677.09;;;3.93;72.85
76627;BME280;65519;53.230;10.390;2023-02-24T02:13:12;100672.44;;;3.82;73.77
76627;BME280;65519;53.230;10.390;2023-02-24T02:27:09;100656.28;;;3.82;74.63
76627;BME280;65519;53.230;10.390;2023-02-24T02:35:14;100638.09;;;3.77;73.58
76627;BME280;65519;53.230;10.390;2023-02-24T02:43:41;100639.00;;;3.89;72.78
76627;BME280;65519;53.230;10.390;2023-02-24T02:46:19;100629.47;;;3.87;72.83
76627;BME280;65519;53.230;10.390;2023-02-24T02:49:03;100634.25;;;3.85;72.21
76627;BME280;65519;53.230;10.390;2023-02-24T02:51:38;100620.34;;;3.88;71.81
76627;BME280;65519;53.230;10.390;2023-02-24T02:56:51;100614.34;;;3.86;71.41
76627;BME280;65519;53.230;10.390;2023-02-24T02:59:20;100615.81;;;4.00;70.96
76627;BME280;65519;53.230;10.390;2023-02-24T03:01:49;100605.81;;;4.00;70.83
76627;BME280;65519;53.230;10.390;2023-02-24T03:04:18;100602.94;;;3.84;71.34
76627;BME280;65519;53.230;10.390;2023-02-24T03:06:51;100598.97;;;3.86;71.08
76627;BME280;65519;53.230;10.390;2023-02-24T03:09:26;100582.53;;;3.76;70.85
76627;BME280;65519;53.230;10.390;2023-02-24T03:11:57;100579.34;;;3.79;70.79
76627;BME280;65519;53.230;10.390;2023-02-24T03:14:28;100584.53;;;3.81;70.78
76627;BME280;65519;53.230;10.390;2023-02-24T03:16:58;100588.91;;;3.93;70.65
76627;BME280;65519;53.230;10.390;2023-02-24T03:19:30;100572.63;;;3.70;69.67
76627;BME280;65519;53.230;10.390;2023-02-24T03:22:11;100577.47;;;3.80;69.53
76627;BME280;65519;53.230;10.390;2023-02-24T03:24:39;100563.88;;;3.75;69.95
76627;BME280;65519;53.230;10.390;2023-02-24T03:27:07;100566.69;;;3.80;69.39
76627;BME280;65519;53.230;10.390;2023-02-24T03:29:42;100557.84;;;3.91;70.55
76627;BME280;65519;53.230;10.390;2023-02-24T03:34:57;100553.63;;;3.65;70.27
76627;BME280;65519;53.230;10.390;2023-02-24T03:37:25;100544.13;;;3.62;71.14
76627;BME280;65519;53.230;10.390;2023-02-24T03:39:53;100536.03;;;3.62;70.50
76627;BME280;65519;53.230;10.390;2023-02-24T03:42:21;100539.28;;;3.53;69.83
76627;BME280;65519;53.230;10.390;2023-02-24T03:44:48;100535.22;;;3.62;70.89
76627;BME280;65519;53.230;10.390;2023-02-24T03:47:15;100533.13;;;3.64;70.03
76627;BME280;65519;53.230;10.390;2023-02-24T03:49:41;100521.00;;;3.55;70.19
76627;BME280;65519;53.230;10.390;2023-02-24T04:17:06;100478.75;;;3.67;68.52
76627;BME280;65519;53.230;10.390;2023-02-24T04:19:38;100474.09;;;3.74;67.96
76627;BME280;65519;53.230;10.390;2023-02-24T04:22:10;100470.69;;;3.67;68.83
76627;BME280;65519;53.230;10.390;2023-02-24T04:24:39;100467.00;;;3.61;68.14
76627;BME280;65519;53.230;10.390;2023-02-24T04:27:07;100465.72;;;3.64;68.30
76627;BME280;65519;53.230;10.390;2023-02-24T04:29:39;100455.41;;;3.61;68.29
76627;BME280;65519;53.230;10.390;2023-02-24T04:32:12;100454.84;;;3.71;68.46
76627;BME280;65519;53.230;10.390;2023-02-24T04:34:40;100439.00;;;3.62;68.15
76627;BME280;65519;53.230;10.390;2023-02-24T04:37:06;100443.16;;;3.77;68.25
76627;BME280;65519;53.230;10.390;2023-02-24T04:39:32;100437.25;;;3.68;69.11
76627;BME280;65519;53.230;10.390;2023-02-24T04:41:58;100430.59;;;3.71;68.00
76627;BME280;65519;53.230;10.390;2023-02-24T04:44:26;100408.91;;;3.65;69.21
76627;BME280;65519;53.230;10.390;2023-02-24T04:46:52;100411.00;;;3.63;69.62
76627;BME280;65519;53.230;10.390;2023-02-24T04:49:18;100406.41;;;3.52;69.66
76627;BME280;65519;53.230;10.390;2023-02-24T04:51:44;100402.31;;;3.61;71.12
76627;BME280;65519;53.230;10.390;2023-02-24T04:54:11;100394.34;;;3.55;69.97
76627;BME280;65519;53.230;10.390;2023-02-24T04:56:49;100393.03;;;3.57;71.37
76627;BME280;65519;53.230;10.390;2023-02-24T04:59:16;100381.22;;;3.58;69.93
76627;BME280;65519;53.230;10.390;2023-02-24T05:01:42;100373.38;;;3.57;71.55
76627;BME280;65519;53.230;10.390;2023-02-24T05:04:09;100370.56;;;3.63;70.00
76627;BME280;65519;53.230;10.390;2023-02-24T05:06:36;100359.66;;;3.58;70.41
76627;BME280;65519;53.230;10.390;2023-02-24T05:09:05;100362.22;;;3.53;70.58
76627;BME280;65519;53.230;10.390;2023-02-24T05:11:41;100351.19;;;3.43;70.43
76627;BME280;65519;53.230;10.390;2023-02-24T05:14:12;100345.59;;;3.56;70.84
76627;BME280;65519;53.230;10.390;2023-02-24T05:16:45;100343.84;;;3.62;70.61
76627;BME280;65519;53.230;10.390;2023-02-24T05:19:12;100335.97;;;3.49;71.44
76627;BME280;65519;53.230;10.390;2023-02-24T05:21:56;100328.03;;;3.54;71.49
76627;BME280;65519;53.230;10.390;2023-02-24T05:24:23;100326.72;;;3.45;72.02
76627;BME280;65519;53.230;10.390;2023-02-24T05:26:50;100333.19;;;3.55;72.42
76627;BME280;65519;53.230;10.390;2023-02-24T05:29:23;100320.50;;;3.44;71.63
76627;BME280;65519;53.230;10.390;2023-02-24T05:31:48;100316.88;;;3.50;72.19
76627;BME280;65519;53.230;10.390;2023-02-24T05:34:13;100308.69;;;3.80;73.56
76627;BME280;65519;53.230;10.390;2023-02-24T05:36:41;100308.69;;;3.68;72.53
76627;BME280;65519;53.230;10.390;2023-02-24T05:39:10;100300.72;;;3.62;71.31
76627;BME280;65519;53.230;10.390;2023-02-24T05:41:38;100292.41;;;3.63;72.20
76627;BME280;65519;53.230;10.390;2023-02-24T05:44:09;100287.25;;;3.62;71.21
76627;BME280;65519;53.230;10.390;2023-02-24T05:46:37;100289.13;;;3.61;71.15
76627;BME280;65519;53.230;10.390;2023-02-24T05:49:05;100280.56;;;3.64;71.33
76627;BME280;65519;53.230;10.390;2023-02-24T05:51:36;100277.16;;;3.57;71.65
76627;BME280;65519;53.230;10.390;2023-02-24T05:54:06;100275.25;;;3.46;72.29
76627;BME280;65519;53.230;10.390;2023-02-24T05:56:34;100269.63;;;3.36;72.17
76627;BME280;65519;53.230;10.390;2023-02-24T05:59:03;100262.38;;;3.37;72.21
76627;BME280;65519;53.230;10.390;2023-02-24T06:01:34;100259.00;;;3.41;72.21
76627;BME280;65519;53.230;10.390;2023-02-24T06:04:03;100249.03;;;3.42;72.05
76627;BME280;65519;53.230;10.390;2023-02-24T06:06:37;100244.81;;;3.34;72.17
76627;BME280;65519;53.230;10.390;2023-02-24T06:09:05;100254.19;;;3.32;72.46
76627;BME280;65519;53.230;10.390;2023-02-24T06:11:40;100248.81;;;3.43;72.61
76627;BME280;65519;53.230;10.390;2023-02-24T06:14:08;100231.91;;;3.36;72.64
76627;BME280;65519;53.230;10.390;2023-02-24T06:16:35;100225.59;;;3.42;73.43
76627;BME280;65519;53.230;10.390;2023-02-24T06:19:02;100227.72;;;3.40;72.85
76627;BME280;65519;53.230;10.390;2023-02-24T06:21:27;100226.66;;;3.29;72.94
76627;BME280;65519;53.230;10.390;2023-02-24T06:23:57;100212.72;;;3.33;73.05
76627;BME280;65519;53.230;10.390;2023-02-24T06:26:24;100211.78;;;3.39;72.93
76627;BME280;65519;53.230;10.390;2023-02-24T06:28:54;100216.47;;;3.32;72.59
76627;BME280;65519;53.230;10.390;2023-02-24T06:31:20;100219.53;;;3.35;73.64
76627;BME280;65519;53.230;10.390;2023-02-24T06:33:46;100210.72;;;3.40;73.18
76627;BME280;65519;53.230;10.390;2023-02-24T06:36:12;100210.03;;;3.33;73.68
76627;BME280;65519;53.230;10.390;2023-02-24T06:38:41;100202.03;;;3.26;74.05
76627;BME280;65519;53.230;10.390;2023-02-24T06:41:07;100193.72;;;3.16;74.25
76627;BME280;65519;53.230;10.390;2023-02-24T06:43:37;100189.75;;;3.18;74.25
76627;BME280;65519;53.230;10.390;2023-02-24T06:46:04;100194.91;;;3.20;73.95
76627;BME280;65519;53.230;10.390;2023-02-24T06:48:30;100191.84;;;3.28;74.31
76627;BME280;65519;53.230;10.390;2023-02-24T06:51:02;100185.66;;;3.27;74.57
76627;BME280;65519;53.230;10.390;2023-02-24T06:53:29;100186.69;;;3.26;74.28
76627;BME280;65519;53.230;10.390;2023-02-24T06:55:56;100185.53;;;3.22;74.62
76627;BME280;65519;53.230;10.390;2023-02-24T06:58:21;100183.66;;;3.23;74.27
76627;BME280;65519;53.230;10.390;2023-02-24T07:00:48;100170.06;;;3.18;74.98
76627;BME280;65519;53.230;10.390;2023-02-24T07:03:27;100169.84;;;3.31;75.07
76627;BME280;65519;53.230;10.390;2023-02-24T07:06:08;100168.19;;;3.30;75.11
76627;BME280;65519;53.230;10.390;2023-02-24T07:08:49;100162.69;;;3.37;75.65
76627;BME280;65519;53.230;10.390;2023-02-24T07:11:15;100164.69;;;3.18;75.45
76627;BME280;65519;53.230;10.390;2023-02-24T07:13:44;100156.34;;;3.78;77.86
76627;BME280;65519;53.230;10.390;2023-02-24T07:16:12;100152.72;;;3.37;75.51
76627;BME280;65519;53.230;10.390;2023-02-24T07:18:40;100154.47;;;3.66;75.67
76627;BME280;65519;53.230;10.390;2023-02-24T07:21:08;100158.34;;;3.47;76.22
76627;BME280;65519;53.230;10.390;2023-02-24T07:23:39;100154.38;;;3.38;nan
76627;BME280;65519;53.230;10.390;2023-02-24T07:26:11;100145.38;;;3.44;76.42
76627;BME280;65519;53.230;10.390;2023-02-24T07:28:41;100157.06;;;3.50;76.84
76627;BME280;65519;53.230;10.390;2023-02-24T07:31:12;100147.25;;;3.32;77.33
76627;BME280;65519;53.230;10.390;2023-02-24T07:33:38;100132.94;;;3.08;78.54
76627;BME280;65519;53.230;10.390;2023-02-24T07:36:05;100128.97;;;3.11;79.97
76627;BME280;65519;53.230;10.390;2023-02-24T07:38:38;100129.66;;;3.06;79.71
76627;BME280;65519;53.230;10.390;2023-02-24T07:41:04;100125.00;;;3.02;80.02
76627;BME280;65519;53.230;10.390;2023-02-24T07:43:37;100117.16;;;3.12;80.35
76627;BME280;65519;53.230;10.390;2023-02-24T07:46:05;100119.13;;;2.93;81.11
76627;BME280;65519;53.230;10.390;2023-02-24T07:48:32;100108.09;;;2.71;82.30
76627;BME280;65519;53.230;10.390;2023-02-24T07:50:57;100100.63;;;2.85;81.98
76627;BME280;65519;53.230;10.390;2023-02-24T07:53:23;100111.72;;;2.65;83.04
76627;BME280;65519;53.230;10.390;2023-02-24T07:55:51;100095.13;;;2.68;82.88
76627;BME280;65519;53.230;10.390;2023-02-24T07:58:17;100098.50;;;2.64;84.32
76627;BME280;65519;53.230;10.390;2023-02-24T08:00:43;100100.81;;;2.60;84.59
76627;BME280;65519;53.230;10.390;2023-02-24T08:03:25;100079.63;;;2.52;84.57
76627;BME280;65519;53.230;10.390;2023-02-24T08:05:56;100083.38;;;2.51;84.87
76627;BME280;65519;53.230;10.390;2023-02-24T08:08:37;100072.97;;;2.43;84.29
76627;BME280;65519;53.230;10.390;2023-02-24T08:11:25;100069.09;;;2.39;85.34
76627;BME280;65519;53.230;10.390;2023-02-24T08:13:51;100063.38;;;2.35;84.75
76627;BME280;65519;53.230;10.390;2023-02-24T08:16:16;100063.69;;;2.27;85.43
76627;BME280;65519;53.230;10.390;2023-02-24T08:18:41;100061.47;;;2.24;86.01
76627;BME280;65519;53.230;10.390;2023-02-24T08:21:16;100064.19;;;2.36;86.18
76627;BME280;65519;53.230;10.390;2023-02-24T08:23:46;100056.75;;;2.19;86.31
76627;BME280;65519;53.230;10.390;2023-02-24T08:26:11;100059.00;;;2.23;85.71
76627;BME280;65519;53.230;10.390;2023-02-24T08:28:38;100047.31;;;2.29;87.01
76627;BME280;65519;53.230;10.390;2023-02-24T08:31:04;100045.38;;;2.06;86.54
76627;BME280;65519;53.230;10.390;2023-02-24T08:33:30;100041.91;;;2.17;86.74
76627;BME280;65519;53.230;10.390;2023-02-24T08:35:55;100033.69;;;2.00;87.16
76627;BME280;65519;53.230;10.390;2023-02-24T08:38:30;100036.00;;;1.97;86.82
76627;BME280;65519;53.230;10.390;2023-02-24T08:41:04;100037.41;;;1.99;87.37
76627;BME280;65519;53.230;10.390;2023-02-24T08:43:37;100023.88;;;1.94;87.42
76627;BME280;65519;53.230;10.390;2023-02-24T08:48:39;100010.94;;;1.84;88.12
76627;BME280;65519;53.230;10.390;2023-02-24T08:53:47;100002.78;;;1.79;87.62
76627;BME280;65519;53.230;10.390;2023-02-24T08:56:14;100002.28;;;1.71;87.64
76627;BME280;65519;53.230;10.390;2023-02-24T08:58:49;99984.53;;;1.70;88.20
76627;BME280;65519;53.230;10.390;2023-02-24T09:01:19;99987.44;;;1.68;88.28
76627;BME280;65519;53.230;10.390;2023-02-24T09:03:50;99978.41;;;1.63;88.16
76627;BME280;65519;53.230;10.390;2023-02-24T09:06:19;99988.69;;;1.66;88.93
76627;BME280;65519;53.230;10.390;2023-02-24T09:08:51;99972.31;;;1.56;88.70
76627;BME280;65519;53.230;10.390;2023-02-24T09:11:37;99963.44;;;1.55;88.49
76627;BME280;65519;53.230;10.390;2023-02-24T09:14:08;99950.59;;;1.57;88.57
76627;BME280;65519;53.230;10.390;2023-02-24T09:16:41;99950.00;;;1.55;88.93
76627;BME280;65519;53.230;10.390;2023-02-24T09:19:20;99934.97;;;1.66;89.01
76627;BME280;65519;53.230;10.390;2023-02-24T09:22:04;99930.16;;;1.56;88.75
76627;BME280;65519;53.230;10.390;2023-02-24T09:24:39;99926.66;;;1.56;88.85
76627;BME280;65519;53.230;10.390;2023-02-24T09:27:05;99907.84;;;1.56;88.83
76627;BME280;65519;53.230;10.390;2023-02-24T09:29:31;99903.31;;;1.68;89.16
76627;BME280;65519;53.230;10.390;2023-02-24T09:32:03;99904.47;;;1.60;88.35
76627;BME280;65519;53.230;10.390;2023-02-24T09:34:34;99904.13;;;1.57;89.13
76627;BME280;65519;53.230;10.390;2023-02-24T09:37:00;99902.28;;;1.69;88.61
76627;BME280;65519;53.230;10.390;2023-02-24T09:39:33;99897.72;;;1.69;88.91
76627;BME280;65519;53.230;10.390;2023-02-24T09:42:20;99881.59;;;1.69;88.66
76627;BME280;65519;53.230;10.390;2023-02-24T09:44:48;99888.50;;;1.77;89.04
76627;BME280;65519;53.230;10.390;2023-02-24T09:52:51;99877.56;;;2.02;87.53
76627;BME280;65519;53.230;10.390;2023-02-24T09:58:30;99867.16;;;1.94;87.68
76627;BME280;65519;53.230;10.390;2023-02-24T10:06:43;99850.09;;;2.11;88.19
76627;BME280;65519;53.230;10.390;2023-02-24T10:11:46;99841.19;;;2.23;87.66
76627;BME280;65519;53.230;10.390;2023-02-24T10:17:13;99839.69;;;2.27;87.35
76627;BME280;65519;53.230;10.390;2023-02-24T10:22:53;99820.28;;;2.25;86.71
76627;BME280;65519;53.230;10.390;2023-02-24T10:33:36;99820.78;;;2.50;88.19
76627;BME280;65519;53.230;10.390;2023-02-24T10:36:16;99814.53;;;2.33;87.74
76627;BME280;65519;53.230;10.390;2023-02-24T10:38:43;99804.72;;;2.27;87.68
76627;BME280;65519;53.230;10.390;2023-02-24T10:41:15;99804.38;;;2.23;87.77
76627;BME280;65519;53.230;10.390;2023-02-24T10:43:53;99793.13;;;2.38;87.60
76627;BME280;65519;53.230;10.390;2023-02-24T10:46:30;99801.03;;;2.56;87.94
76627;BME280;65519;53.230;10.390;2023-02-24T10:48:59;99790.31;;;2.33;87.11
76627;BME280;65519;53.230;10.390;2023-02-24T10:51:50;99787.97;;;2.36;87.68
76627;BME280;65519;53.230;10.390;2023-02-24T10:54:19;99776.03;;;2.44;88.29
76627;BME280;65519;53.230;10.390;2023-02-24T10:56:58;99775.44;;;2.42;87.22
76627;BME280;65519;53.230;10.390;2023-02-24T10:59:43;99757.59;;;2.36;87.36
76627;BME280;65519;53.230;10.390;2023-02-24T11:02:48;99755.59;;;2.31;87.23
76627;BME280;65519;53.230;10.390;2023-02-24T11:08:17;99733.81;;;2.44;87.26
76627;BME280;65519;53.230;10.390;2023-02-24T11:11:11;99754.16;;;2.40;87.33
76627;BME280;65519;53.230;10.390;2023-02-24T11:13:48;99734.72;;;2.50;88.02
76627;BME280;65519;53.230;10.390;2023-02-24T11:16:59;99731.06;;;2.56;86.20
76627;BME280;65519;53.230;10.390;2023-02-24T11:22:06;99725.97;;;2.43;87.30
76627;BME280;65519;53.230;10.390;2023-02-24T11:24:35;99724.53;;;2.52;86.98
76627;BME280;65519;53.230;10.390;2023-02-24T11:27:02;99720.13;;;2.46;87.26
76627;BME280;65519;53.230;10.390;2023-02-24T11:32:57;99704.84;;;2.63;86.61
76627;BME280;65519;53.230;10.390;2023-02-24T11:38:03;99712.84;;;2.75;85.45
76627;BME280;65519;53.230;10.390;2023-02-24T11:40:40;99697.56;;;3.09;87.25
76627;BME280;65519;53.230;10.390;2023-02-24T11:43:17;99691.69;;;3.12;86.30
76627;BME280;65519;53.230;10.390;2023-02-24T11:50:44;99683.03;;;3.10;85.79
76627;BME280;65519;53.230;10.390;2023-02-24T11:53:21;99676.91;;;2.98;85.35
76627;BME280;65519;53.230;10.390;2023-02-24T11:55:57;99667.22;;;2.80;86.00
76627;BME280;65519;53.230;10.390;2023-02-24T11:58:27;99652.34;;;2.77;86.10
76627;BME280;65519;53.230;10.390;2023-02-24T12:03:58;99648.84;;;2.93;86.11
76627;BME280;65519;53.230;10.390;2023-02-24T12:09:20;99640.75;;;2.93;86.16
76627;BME280;65519;53.230;10.390;2023-02-24T12:17:24;99622.00;;;2.82;86.95
76627;BME280;65519;53.230;10.390;2023-02-24T12:20:17;99614.19;;;2.97;86.40
76627;BME280;65519;53.230;10.390;2023-02-24T12:22:52;99618.25;;;3.00;87.31
76627;BME280;65519;53.230;10.390;2023-02-24T12:25:27;99608.47;;;2.93;86.94
76627;BME280;65519;53.230;10.390;2023-02-24T12:46:59;99579.09;;;3.09;86.96
76627;BME280;65519;53.230;10.390;2023-02-24T13:06:01;99551.25;;;3.42;86.84
76627;BME280;65519;53.230;10.390;2023-02-24T13:09:11;99538.94;;;3.24;87.39
76627;BME280;65519;53.230;10.390;2023-02-24T13:14:41;99532.09;;;3.38;86.33
76627;BME280;65519;53.230;10.390;2023-02-24T13:19:37;99516.97;;;3.37;87.41
76627;BME280;65519;53.230;10.390;2023-02-24T13:22:15;99525.16;;;3.42;87.46
76627;BME280;65519;53.230;10.390;2023-02-24T13:27:26;99508.84;;;3.32;87.20
76627;BME280;65519;53.230;10.390;2023-02-24T13:29:58;99508.97;;;3.42;86.86
76627;BME280;65519;53.230;10.390;2023-02-24T13:32:35;99519.63;;;3.32;87.71
76627;BME280;65519;53.230;10.390;2023-02-24T13:39:56;99503.28;;;3.39;87.19
76627;BME280;65519;53.230;10.390;2023-02-24T13:42:27;99504.22;;;3.49;86.77
76627;BME280;65519;53.230;10.390;2023-02-24T13:45:17;99491.31;;;3.51;87.19
76627;BME280;65519;53.230;10.390;2023-02-24T14:01:09;99451.47;;;3.53;87.11
76627;BME280;65519;53.230;10.390;2023-02-24T14:03:37;99459.66;;;3.63;86.87
76627;BME280;65519;53.230;10.390;2023-02-24T14:06:16;99454.56;;;3.67;86.46
76627;BME280;65519;53.230;10.390;2023-02-24T14:08:46;99451.00;;;3.61;86.43
76627;BME280;65519;53.230;10.390;2023-02-24T14:11:15;99454.16;;;3.53;86.65
76627;BME280;65519;53.230;10.390;2023-02-24T14:13:48;99447.16;;;3.57;86.83
76627;BME280;65519;53.230;10.390;2023-02-24T14:16:18;99438.34;;;3.62;86.47
76627;BME280;65519;53.230;10.390;2023-02-24T14:18:54;99430.22;;;3.57;86.88
76627;BME280;65519;53.230;10.390;2023-02-24T14:21:22;99427.56;;;3.62;86.97
76627;BME280;65519;53.230;10.390;2023-02-24T14:24:03;99429.66;;;3.55;87.32
76627;BME280;65519;53.230;10.390;2023-02-24T14:26:41;99422.75;;;3.69;86.90
76627;BME280;65519;53.230;10.390;2023-02-24T14:29:08;99422.47;;;3.65;87.69
76627;BME280;65519;53.230;10.390;2023-02-24T14:31:34;99415.75;;;3.68;87.25
76627;BME280;65519;53.230;10.390;2023-02-24T14:34:02;99414.50;;;3.76;87.19
76627;BME280;65519;53.230;10.390;2023-02-24T14:36:35;99409.94;;;3.81;87.33
76627;BME280;65519;53.230;10.390;2023-02-24T14:41:38;99401.78;;;3.71;87.69
76627;BME280;65519;53.230;10.390;2023-02-24T14:44:26;99391.31;;;3.75;87.91
76627;BME280;65519;53.230;10.390;2023-02-24T14:46:57;99395.22;;;3.89;87.63
76627;BME280;65519;53.230;10.390;2023-02-24T14:49:32;99395.22;;;3.89;87.75
76627;BME280;65519;53.230;10.390;2023-02-24T14:54:52;99388.84;;;4.00;87.27
76627;BME280;65519;53.230;10.390;2023-02-24T14:57:23;99384.53;;;4.04;87.38
76627;BME280;65519;53.230;10.390;2023-02-24T14:59:57;99386.16;;;4.05;87.32
76627;BME280;65519;53.230;10.390;2023-02-24T15:02:30;99384.03;;;4.12;86.83
76627;BME280;65519;53.230;10.390;2023-02-24T15:04:57;99384.09;;;4.22;87.50
76627;BME280;65519;53.230;10.390;2023-02-24T15:07:33;99384.34;;;4.16;87.38
76627;BME280;65519;53.230;10.390;2023-02-24T15:10:00;99380.06;;;4.20;87.85
76627;BME280;65519;53.230;10.390;2023-02-24T15:15:04;99373.38;;;4.27;87.96
76627;BME280;65519;53.230;10.390;2023-02-24T15:17:31;99362.59;;;4.27;88.26
76627;BME280;65519;53.230;10.390;2023-02-24T15:19:57;99360.38;;;4.19;88.69
76627;BME280;65519;53.230;10.390;2023-02-24T15:22:28;99351.75;;;4.22;88.37
76627;BME280;65519;53.230;10.390;2023-02-24T15:25:42;99350.97;;;4.22;88.53
76627;BME280;65519;53.230;10.390;2023-02-24T15:35:38;99343.13;;;4.20;88.54
76627;BME280;65519;53.230;10.390;2023-02-24T15:38:20;99339.34;;;4.21;88.75
76627;BME280;65519;53.230;10.390;2023-02-24T15:40:52;99330.16;;;4.22;88.02
76627;BME280;65519;53.230;10.390;2023-02-24T15:48:48;99310.56;;;4.37;87.99
76627;BME280;65519;53.230;10.390;2023-02-24T15:54:02;99312.75;;;4.40;88.27
76627;BME280;65519;53.230;10.390;2023-02-24T15:56:31;99304.34;;;4.36;88.23
76627;BME280;65519;53.230;10.390;2023-02-24T15:58:57;99305.47;;;4.40;88.45
76627;BME280;65519;53.230;10.390;2023-02-24T16:01:27;99304.63;;;4.35;88.73
76627;BME280;65519;53.230;10.390;2023-02-24T16:03:52;99309.25;;;4.45;88.44
76627;BME280;65519;53.230;10.390;2023-02-24T16:06:19;99299.81;;;4.47;88.41
76627;BME280;65519;53.230;10.390;2023-02-24T16:08:47;99296.63;;;4.55;88.64
76627;BME280;65519;53.230;10.390;2023-02-24T16:11:13;99293.66;;;4.57;88.47
76627;BME280;65519;53.230;10.390;2023-02-24T16:13:44;99295.78;;;4.55;88.38
76627;BME280;65519;53.230;10.390;2023-02-24T16:16:11;99290.41;;;4.55;88.59
76627;BME280;65519;53.230;10.390;2023-02-24T16:18:37;99296.94;;;4.64;87.71
76627;BME280;65519;53.230;10.390;2023-02-24T16:21:03;99291.00;;;4.67;87.66
76627;BME280;65519;53.230;10.390;2023-02-24T16:23:28;99288.88;;;4.74;87.25
76627;BME280;65519;53.230;10.390;2023-02-24T16:25:56;99275.91;;;4.76;87.38
76627;BME280;65519;53.230;10.390;2023-02-24T16:28:22;99281.84;;;4.73;87.04
76627;BME280;65519;53.230;10.390;2023-02-24T16:30:48;99293.19;;;4.80;86.79
76627;BME280;65519;53.230;10.390;2023-02-24T16:33:15;99285.66;;;4.82;86.80
76627;BME280;65519;53.230;10.390;2023-02-24T16:35:42;99289.44;;;4.81;86.93
76627;BME280;65519;53.230;10.390;2023-02-24T16:38:12;99277.00;;;4.80;86.55
76627;BME280;65519;53.230;10.390;2023-02-24T16:40:41;99270.78;;;4.80;86.55
76627;BME280;65519;53.230;10.390;2023-02-24T16:43:07;99273.75;;;4.78;85.96
76627;BME280;65519;53.230;10.390;2023-02-24T16:45:32;99277.28;;;4.73;86.57